Time;durP1;ratioP1;P1;durP2;ratioP2;P2;SDS_P1;SDS_P2;PMS_P1;PMS_P2;Temp;Humidity;BMP_temperature;BMP_pressure;BME280_temperature;BME280_humidity;BME280_pressure;Samples;Min_cycle;Max_cycle;Signal;HPM_P1;HPM_P2
2021/01/15 00:00:08;;;;;;;15.57;6.85;;;0.10;72.30;;;;;;5062737;28;20060;-63
2021/01/15 00:02:34;;;;;;;13.38;7.68;;;0.20;72.30;;;;;;5063987;28;20033;-64
2021/01/15 00:05:00;;;;;;;12.18;7.88;;;0.20;72.20;;;;;;5062169;28;20036;-64
2021/01/15 00:07:29;;;;;;;13.65;7.88;;;0.10;71.90;;;;;;5061107;28;20119;-63
2021/01/15 00:09:54;;;;;;;11.57;7.28;;;0.10;72.00;;;;;;5062419;28;20112;-64
2021/01/15 00:12:20;;;;;;;10.93;7.03;;;0.10;71.50;;;;;;5062202;28;20086;-64
2021/01/15 00:14:45;;;;;;;13.10;7.55;;;0.10;71.90;;;;;;5063692;28;20088;-64
2021/01/15 00:17:11;;;;;;;11.73;7.85;;;0.00;71.50;;;;;;5055453;28;20034;-64
2021/01/15 00:19:37;;;;;;;13.32;7.95;;;0.00;71.00;;;;;;5062047;28;20217;-63
2021/01/15 00:22:02;;;;;;;12.60;7.63;;;0.00;71.70;;;;;;5061773;28;20075;-64
2021/01/15 00:24:28;;;;;;;12.65;8.23;;;0.00;71.60;;;;;;5065192;28;20075;-64
2021/01/15 00:26:53;;;;;;;13.25;7.63;;;0.00;71.60;;;;;;5062257;28;20307;-64
2021/01/15 00:29:19;;;;;;;12.07;7.60;;;-3276.70;71.00;;;;;;5061798;28;20340;-64
2021/01/15 00:31:48;;;;;;;14.15;8.45;;;-3276.70;71.60;;;;;;5061752;28;20331;-64
2021/01/15 00:34:15;;;;;;;15.43;9.07;;;-3276.70;71.50;;;;;;5061799;28;20350;-64
2021/01/15 00:36:43;;;;;;;13.68;9.27;;;-3276.70;71.90;;;;;;5063941;28;20029;-64
2021/01/15 00:39:09;;;;;;;13.15;8.85;;;-3276.70;71.80;;;;;;5061683;28;20383;-64
2021/01/15 00:41:35;;;;;;;14.48;9.30;;;-3276.70;71.40;;;;;;5061363;28;20037;-64
2021/01/15 00:44:01;;;;;;;12.30;8.68;;;-3276.50;70.90;;;;;;5060054;28;20056;-64
2021/01/15 00:46:31;;;;;;;13.52;8.90;;;-3276.50;70.60;;;;;;5060618;28;20044;-63
2021/01/15 00:49:09;;;;;;;13.40;8.90;;;-3276.50;70.60;;;;;;5062803;28;20021;-64
2021/01/15 00:51:35;;;;;;;14.80;8.80;;;-3276.40;70.60;;;;;;5058504;28;20104;-64
2021/01/15 00:54:01;;;;;;;13.80;9.23;;;-3276.30;70.30;;;;;;5055620;28;20029;-63
2021/01/15 00:56:26;;;;;;;17.38;9.90;;;-3276.20;70.50;;;;;;5061004;28;20060;-64
2021/01/15 00:58:52;;;;;;;16.20;9.98;;;-3276.30;70.30;;;;;;5057728;28;20383;-64
2021/01/15 01:01:20;;;;;;;16.17;9.52;;;-3276.10;70.50;;;;;;5061063;28;20279;-64
2021/01/15 01:03:49;;;;;;;15.90;9.50;;;-3276.20;70.70;;;;;;5062687;28;20064;-64
2021/01/15 01:06:16;;;;;;;15.90;9.63;;;-3276.10;70.80;;;;;;5062726;28;20384;-64
2021/01/15 01:08:41;;;;;;;16.50;9.63;;;-3276.10;71.30;;;;;;5061168;28;20100;-64
2021/01/15 01:11:20;;;;;;;14.90;8.95;;;-3276.10;71.40;;;;;;5059546;28;20055;-64
2021/01/15 01:13:51;;;;;;;17.40;9.02;;;-3276.10;71.10;;;;;;5060919;28;20128;-64
2021/01/15 01:16:17;;;;;;;15.93;9.87;;;-3276.00;71.40;;;;;;5059644;28;20036;-63
2021/01/15 01:18:43;;;;;;;14.48;9.45;;;-3276.00;72.00;;;;;;5062682;28;20042;-63
2021/01/15 01:21:09;;;;;;;16.00;9.48;;;-3276.10;71.90;;;;;;5062909;28;20041;-63
2021/01/15 01:23:35;;;;;;;15.25;9.43;;;-3276.10;71.40;;;;;;5060623;28;20037;-63
2021/01/15 01:26:01;;;;;;;16.08;9.65;;;-3276.00;71.70;;;;;;5060553;28;20037;-64
2021/01/15 01:28:26;;;;;;;15.50;9.82;;;-3275.90;71.40;;;;;;5060925;28;20096;-64
2021/01/15 01:30:52;;;;;;;16.60;9.27;;;-3276.00;71.90;;;;;;5062130;28;20219;-64
2021/01/15 01:33:18;;;;;;;15.95;9.73;;;-3276.00;71.50;;;;;;5062735;28;20052;-64
2021/01/15 01:35:43;;;;;;;16.75;9.73;;;-3275.90;71.70;;;;;;5060049;28;20041;-64
2021/01/15 01:38:09;;;;;;;16.63;9.23;;;-3275.90;71.40;;;;;;5060480;28;20262;-64
2021/01/15 01:40:34;;;;;;;17.90;9.68;;;-3275.90;71.10;;;;;;5060834;28;20044;-63
2021/01/15 01:43:00;;;;;;;16.42;9.30;;;-3275.90;70.90;;;;;;5062046;28;20139;-64
2021/01/15 01:45:26;;;;;;;16.98;9.90;;;-3275.80;70.40;;;;;;5061196;28;20036;-64
2021/01/15 01:47:53;;;;;;;15.05;8.75;;;-3275.70;69.70;;;;;;5062522;28;20028;-64
2021/01/15 01:50:18;;;;;;;16.45;9.32;;;-3275.70;69.70;;;;;;5060385;28;20036;-64
2021/01/15 01:52:44;;;;;;;14.07;9.27;;;-3275.60;69.10;;;;;;5059397;28;20048;-64
2021/01/15 01:55:10;;;;;;;16.17;9.45;;;-3275.50;69.00;;;;;;5059504;28;20096;-64
2021/01/15 01:57:35;;;;;;;14.38;9.00;;;-3275.40;69.00;;;;;;5060996;28;20219;-64
2021/01/15 02:00:01;;;;;;;16.48;9.25;;;-3275.30;68.90;;;;;;5062452;28;20328;-63
2021/01/15 02:02:27;;;;;;;14.52;9.27;;;-3275.20;69.00;;;;;;5060605;28;20037;-63
2021/01/15 02:04:52;;;;;;;15.50;9.10;;;-3275.30;69.50;;;;;;5061881;28;20041;-64
2021/01/15 02:07:18;;;;;;;16.30;10.15;;;-3275.20;69.10;;;;;;5064298;28;20040;-63
2021/01/15 02:09:56;;;;;;;15.95;9.93;;;-3275.20;68.90;;;;;;5065982;28;20107;-64
2021/01/15 02:12:37;;;;;;;15.45;9.35;;;-3275.10;68.70;;;;;;5064301;28;20205;-64
2021/01/15 02:15:08;;;;;;;14.40;9.30;;;-3275.10;69.30;;;;;;5064865;28;20045;-63
2021/01/15 02:17:36;;;;;;;16.58;9.98;;;-3275.00;69.40;;;;;;5062814;28;20078;-64
2021/01/15 02:20:03;;;;;;;14.35;9.27;;;-3274.90;69.50;;;;;;5063933;28;20029;-64
2021/01/15 02:22:44;;;;;;;15.65;8.60;;;-3275.00;69.70;;;;;;5063898;28;20033;-64
2021/01/15 02:25:30;;;;;;;14.43;9.13;;;-3275.00;69.70;;;;;;5062838;28;20056;-63
2021/01/15 02:28:05;;;;;;;15.43;9.68;;;-3275.00;69.20;;;;;;5064815;28;20036;-63
2021/01/15 02:30:42;;;;;;;15.55;9.50;;;-3274.90;69.10;;;;;;5064645;28;20029;-64
2021/01/15 02:33:28;;;;;;;14.23;8.85;;;-3274.90;69.10;;;;;;5065687;28;20052;-64
2021/01/15 02:35:58;;;;;;;13.63;8.98;;;-3274.80;69.20;;;;;;5063330;28;20032;-64
2021/01/15 02:38:53;;;;;;;14.80;9.27;;;-3274.70;68.70;;;;;;5063680;28;20063;-63
2021/01/15 02:41:22;;;;;;;15.93;9.07;;;-3274.70;68.90;;;;;;5062910;28;20247;-63
2021/01/15 02:43:53;;;;;;;16.50;9.60;;;-3274.80;69.10;;;;;;5063581;28;20045;-63
2021/01/15 02:46:24;;;;;;;16.65;9.40;;;-3274.70;69.30;;;;;;5062514;28;20044;-63
2021/01/15 02:48:50;;;;;;;15.60;9.55;;;-3274.60;68.90;;;;;;5047693;28;20025;-64
2021/01/15 02:51:15;;;;;;;15.82;9.60;;;-3274.50;68.80;;;;;;5047221;28;20087;-64
2021/01/15 02:53:41;;;;;;;16.40;9.20;;;-3274.50;68.50;;;;;;5045738;28;20040;-64
2021/01/15 02:56:06;;;;;;;17.05;9.18;;;-3274.50;68.90;;;;;;5063386;28;20035;-63
2021/01/15 02:58:32;;;;;;;14.95;9.10;;;-3274.40;68.80;;;;;;5062899;28;20033;-63
2021/01/15 03:00:58;;;;;;;14.35;9.07;;;-3274.40;68.80;;;;;;5065492;28;20335;-64
2021/01/15 03:03:33;;;;;;;19.33;9.20;;;-3274.40;68.80;;;;;;5063246;28;20037;-64
2021/01/15 03:06:15;;;;;;;17.05;8.90;;;-3274.20;69.20;;;;;;5046748;28;20267;-63
2021/01/15 03:08:40;;;;;;;13.65;8.98;;;-3274.20;68.70;;;;;;5063124;28;20331;-63
2021/01/15 03:11:06;;;;;;;14.68;8.90;;;-3274.30;68.40;;;;;;5044438;28;20108;-63
2021/01/15 03:13:32;;;;;;;14.10;8.18;;;-3274.30;68.20;;;;;;5062967;28;20033;-64
2021/01/15 03:15:59;;;;;;;15.73;9.00;;;-3274.30;68.10;;;;;;5063848;28;20033;-64
2021/01/15 03:18:25;;;;;;;18.33;9.38;;;-3274.20;68.20;;;;;;5045410;28;20135;-64
2021/01/15 03:20:51;;;;;;;13.50;8.60;;;-3274.20;68.30;;;;;;5047233;28;20258;-64
2021/01/15 03:23:16;;;;;;;15.55;9.00;;;-3274.20;68.40;;;;;;5045324;28;20033;-64
2021/01/15 03:25:42;;;;;;;15.88;9.45;;;-3274.10;68.30;;;;;;5062489;28;20288;-64
2021/01/15 03:28:07;;;;;;;14.35;8.70;;;-3274.10;68.50;;;;;;5062540;28;20213;-63
2021/01/15 03:30:33;;;;;;;15.43;9.02;;;-3274.00;68.90;;;;;;5064966;28;20304;-64
2021/01/15 03:33:00;;;;;;;15.73;9.38;;;-3274.00;68.90;;;;;;5064009;28;20037;-64
2021/01/15 03:35:27;;;;;;;16.27;9.63;;;-3274.00;69.40;;;;;;5062317;28;20068;-63
2021/01/15 03:38:09;;;;;;;15.98;9.18;;;-3274.00;68.90;;;;;;5062772;28;20056;-64
2021/01/15 03:40:36;;;;;;;14.80;8.55;;;-3273.90;68.60;;;;;;5061678;28;20041;-63
2021/01/15 03:43:13;;;;;;;15.70;9.30;;;-3273.90;68.60;;;;;;5062355;28;20271;-64
2021/01/15 03:45:39;;;;;;;17.00;8.95;;;-3273.90;68.70;;;;;;5064276;28;20017;-63
2021/01/15 03:48:05;;;;;;;16.52;9.40;;;-3273.90;68.60;;;;;;5064505;28;20338;-63
2021/01/15 03:50:31;;;;;;;14.90;8.77;;;-3274.00;68.50;;;;;;5061963;28;20044;-64
2021/01/15 03:52:56;;;;;;;15.63;9.15;;;-3273.90;68.60;;;;;;5062354;28;20045;-63
2021/01/15 03:55:22;;;;;;;13.90;8.98;;;-3273.90;68.30;;;;;;5062423;28;20041;-63
2021/01/15 03:57:47;;;;;;;15.60;8.73;;;-3273.90;68.80;;;;;;5063849;28;20056;-63
2021/01/15 04:00:15;;;;;;;13.52;8.60;;;-3273.90;68.10;;;;;;5062989;28;20037;-63
2021/01/15 04:02:41;;;;;;;15.40;9.00;;;-3273.80;68.10;;;;;;5062382;28;20091;-64
2021/01/15 04:05:10;;;;;;;15.85;9.13;;;-3273.90;68.30;;;;;;5061762;28;20250;-63
2021/01/15 04:07:35;;;;;;;16.42;9.15;;;-3273.80;68.40;;;;;;5061744;28;20036;-63
2021/01/15 04:10:01;;;;;;;17.33;8.77;;;-3273.80;68.60;;;;;;5060820;28;20111;-63
2021/01/15 04:12:29;;;;;;;14.90;8.90;;;-3273.80;68.40;;;;;;5063914;28;20075;-63
2021/01/15 04:14:55;;;;;;;18.00;9.23;;;-3273.80;68.60;;;;;;5063797;28;20244;-63
2021/01/15 04:17:22;;;;;;;14.80;9.02;;;-3273.70;68.50;;;;;;5062075;28;20037;-63
2021/01/15 04:19:47;;;;;;;16.00;9.52;;;-3273.70;68.50;;;;;;5061943;28;20048;-63
2021/01/15 04:22:13;;;;;;;17.45;9.02;;;-3273.70;68.60;;;;;;5061813;28;20048;-63
2021/01/15 04:24:39;;;;;;;18.23;10.23;;;-3273.70;68.80;;;;;;5063572;28;20029;-63
2021/01/15 04:27:04;;;;;;;16.85;8.77;;;-3273.70;68.30;;;;;;5063473;28;20075;-63
2021/01/15 04:29:30;;;;;;;15.05;8.75;;;-3273.70;68.20;;;;;;5060812;28;20029;-63
2021/01/15 04:31:55;;;;;;;16.83;9.18;;;-3273.70;67.80;;;;;;5061627;28;20041;-63
2021/01/15 04:34:21;;;;;;;15.93;8.98;;;-3273.60;68.00;;;;;;5061785;28;20037;-63
2021/01/15 04:36:47;;;;;;;15.43;8.63;;;-3273.60;67.80;;;;;;5063147;28;20037;-63
2021/01/15 04:39:12;;;;;;;16.98;9.10;;;-3273.50;67.80;;;;;;5063699;28;20058;-64
2021/01/15 04:41:38;;;;;;;16.17;9.00;;;-3273.50;67.60;;;;;;5061319;28;20043;-63
2021/01/15 04:44:04;;;;;;;16.05;8.63;;;-3273.40;67.70;;;;;;5043906;28;20096;-63
2021/01/15 04:46:29;;;;;;;15.95;9.32;;;-3273.40;67.80;;;;;;5061262;28;20328;-63
2021/01/15 04:48:56;;;;;;;14.27;8.55;;;-3273.40;67.80;;;;;;5063229;28;20035;-63
2021/01/15 04:51:26;;;;;;;16.80;8.77;;;-3273.50;67.90;;;;;;5061612;28;20075;-64
2021/01/15 04:54:04;;;;;;;18.75;8.73;;;-3273.50;68.00;;;;;;5062153;28;20197;-63
2021/01/15 04:56:48;;;;;;;17.92;8.82;;;-3273.40;67.90;;;;;;5061464;28;20320;-63
2021/01/15 04:59:14;;;;;;;15.27;8.23;;;-3273.40;67.90;;;;;;5061732;28;20057;-63
2021/01/15 05:01:40;;;;;;;17.50;9.82;;;-3273.40;67.70;;;;;;5060766;28;20037;-63
2021/01/15 05:04:10;;;;;;;15.77;9.25;;;-3273.40;68.00;;;;;;5061012;28;20021;-64
2021/01/15 05:06:43;;;;;;;16.13;8.90;;;-3273.30;67.90;;;;;;5062925;28;20036;-63
2021/01/15 05:09:14;;;;;;;16.60;9.48;;;-3273.40;68.10;;;;;;5062648;28;20060;-63
2021/01/15 05:11:41;;;;;;;18.00;9.48;;;-3273.40;68.00;;;;;;5060794;28;20056;-63
2021/01/15 05:14:11;;;;;;;16.88;9.02;;;-3273.30;67.90;;;;;;5059676;28;20029;-63
2021/01/15 05:16:38;;;;;;;16.67;9.43;;;-3273.30;67.80;;;;;;5059584;28;20117;-63
2021/01/15 05:19:05;;;;;;;16.92;9.23;;;-3273.30;67.90;;;;;;5060741;28;20032;-63
2021/01/15 05:21:32;;;;;;;17.60;9.05;;;-3273.20;67.60;;;;;;5062701;28;20087;-63
2021/01/15 05:23:57;;;;;;;15.95;8.93;;;-3273.20;67.60;;;;;;5062323;28;20041;-63
2021/01/15 05:26:23;;;;;;;17.40;9.05;;;-3273.20;67.60;;;;;;5060667;28;20082;-63
2021/01/15 05:28:49;;;;;;;14.13;8.85;;;-3273.20;67.60;;;;;;5060763;28;20061;-64
2021/01/15 05:31:14;;;;;;;22.50;9.20;;;-3273.10;67.80;;;;;;5059766;28;20041;-64
2021/01/15 05:33:40;;;;;;;17.77;8.98;;;-3273.10;68.20;;;;;;5062352;28;20048;-63
2021/01/15 05:36:06;;;;;;;16.08;8.88;;;-3273.10;68.20;;;;;;5062640;28;20068;-64
2021/01/15 05:38:31;;;;;;;19.77;9.85;;;-3273.10;68.20;;;;;;5060674;28;20230;-64
2021/01/15 05:40:57;;;;;;;19.58;9.82;;;-3273.10;68.10;;;;;;5064190;28;20087;-63
2021/01/15 05:43:32;;;;;;;18.75;9.32;;;-3273.10;68.30;;;;;;5064766;28;20117;-63
2021/01/15 05:46:21;;;;;;;19.60;9.68;;;-3273.10;67.90;;;;;;5066625;28;20101;-65
2021/01/15 05:48:48;;;;;;;16.98;9.15;;;-3273.10;67.80;;;;;;5062902;28;20261;-66
2021/01/15 05:51:22;;;;;;;19.15;9.13;;;-3273.10;67.60;;;;;;5065085;28;20044;-65
2021/01/15 05:53:48;;;;;;;19.17;9.75;;;-3273.00;67.40;;;;;;5065002;28;20053;-65
2021/01/15 05:56:14;;;;;;;17.27;9.65;;;-3273.00;67.30;;;;;;5064033;28;20041;-65
2021/01/15 05:58:59;;;;;;;18.92;9.63;;;-3272.90;67.20;;;;;;5063014;28;20041;-65
2021/01/15 06:01:26;;;;;;;16.33;9.27;;;-3272.90;67.00;;;;;;5062710;28;20346;-65
2021/01/15 06:03:54;;;;;;;18.95;9.20;;;-3273.00;67.60;;;;;;5064695;28;20033;-64
2021/01/15 06:06:20;;;;;;;19.95;9.85;;;-3273.10;67.20;;;;;;5064436;28;20040;-66
2021/01/15 06:08:46;;;;;;;21.25;10.15;;;-3272.90;66.50;;;;;;5029780;28;20033;-65
2021/01/15 06:11:21;;;;;;;14.68;9.25;;;-3272.90;66.90;;;;;;5062545;28;20077;-65
2021/01/15 06:13:47;;;;;;;20.48;9.93;;;-3272.80;67.20;;;;;;5063125;28;20041;-65
2021/01/15 06:16:17;;;;;;;17.02;9.10;;;-3272.90;67.00;;;;;;5062618;28;20025;-66
2021/01/15 06:18:58;;;;;;;19.60;9.90;;;-3272.90;67.00;;;;;;5065908;28;20044;-65
2021/01/15 06:21:32;;;;;;;19.02;10.15;;;-3272.90;66.80;;;;;;5064057;28;20350;-65
2021/01/15 06:24:05;;;;;;;17.88;9.55;;;-3272.90;66.90;;;;;;5064143;28;20055;-65
2021/01/15 06:26:38;;;;;;;18.58;10.80;;;-3272.90;67.10;;;;;;5064014;28;20041;-65
2021/01/15 06:29:11;;;;;;;18.02;10.50;;;-3272.80;67.60;;;;;;5063830;28;20033;-65
2021/01/15 06:31:44;;;;;;;20.38;10.30;;;-3272.90;68.00;;;;;;5062337;28;20150;-65
2021/01/15 06:34:10;;;;;;;21.05;9.88;;;-3273.00;68.50;;;;;;5062854;28;20032;-65
2021/01/15 06:36:52;;;;;;;18.88;10.73;;;-3272.90;68.50;;;;;;5064989;28;20025;-65
2021/01/15 06:39:19;;;;;;;21.38;10.88;;;-3273.00;68.90;;;;;;5048349;28;20234;-65
2021/01/15 06:41:44;;;;;;;21.25;11.02;;;-3273.10;69.50;;;;;;5061659;28;20033;-65
2021/01/15 06:44:11;;;;;;;21.13;11.40;;;-3273.10;69.60;;;;;;5061608;28;20347;-65
2021/01/15 06:46:42;;;;;;;18.23;10.88;;;-3273.20;69.80;;;;;;5061833;28;20091;-62
2021/01/15 06:49:12;;;;;;;18.48;11.25;;;-3273.30;69.70;;;;;;5062128;28;20075;-66
2021/01/15 06:51:38;;;;;;;23.92;11.23;;;-3273.30;70.10;;;;;;5062800;28;20029;-67
2021/01/15 06:54:05;;;;;;;26.67;11.98;;;-3273.40;70.60;;;;;;5046386;28;20033;-67
2021/01/15 06:56:31;;;;;;;25.20;13.90;;;-3273.40;71.40;;;;;;5044431;28;20037;-67
2021/01/15 06:58:58;;;;;;;32.05;14.98;;;-3273.60;72.80;;;;;;5044752;28;20047;-67
2021/01/15 07:01:44;;;;;;;32.42;16.13;;;-3273.70;74.20;;;;;;5059927;28;20036;-67
2021/01/15 07:04:27;;;;;;;39.20;17.35;;;-3273.90;74.80;;;;;;5046034;28;20320;-65
2021/01/15 07:07:15;;;;;;;35.80;17.60;;;-3274.00;75.30;;;;;;5064842;28;20036;-65
2021/01/15 07:09:42;;;;;;;36.75;17.15;;;-3274.10;75.40;;;;;;5062262;28;22701;-66
2021/01/15 07:12:09;;;;;;;37.97;16.63;;;-3274.20;75.80;;;;;;5063437;28;20067;-65
2021/01/15 07:14:56;;;;;;;39.78;17.10;;;-3274.30;76.10;;;;;;5061557;28;20247;-64
2021/01/15 07:17:29;;;;;;;34.80;17.45;;;-3274.30;76.50;;;;;;5063387;28;20029;-65
2021/01/15 07:20:18;;;;;;;35.70;17.08;;;-3274.40;76.20;;;;;;5061513;28;20048;-66
2021/01/15 07:22:58;;;;;;;33.30;16.90;;;-3274.40;75.90;;;;;;5054692;28;20079;-66
2021/01/15 07:25:24;;;;;;;36.28;17.95;;;-3274.40;75.80;;;;;;5061384;28;20052;-65
2021/01/15 07:27:50;;;;;;;36.63;17.45;;;-3274.40;75.90;;;;;;5064327;28;20342;-67
2021/01/15 07:30:27;;;;;;;36.78;17.45;;;-3274.50;76.00;;;;;;5063687;28;20388;-67
2021/01/15 07:32:53;;;;;;;37.92;17.95;;;-3274.60;75.90;;;;;;5042444;28;20108;-66
2021/01/15 07:35:20;;;;;;;35.47;17.90;;;-3274.60;75.80;;;;;;5061310;28;20064;-64
2021/01/15 07:37:46;;;;;;;35.83;17.42;;;-3274.60;75.40;;;;;;5062614;28;20240;-65
2021/01/15 07:40:23;;;;;;;38.35;18.08;;;-3274.70;75.60;;;;;;5061505;28;20044;-64
2021/01/15 07:42:50;;;;;;;36.47;17.77;;;-3274.70;75.60;;;;;;5064402;28;20205;-64
2021/01/15 07:45:27;;;;;;;35.53;17.95;;;-3274.80;75.70;;;;;;5064746;28;20041;-64
2021/01/15 07:48:01;;;;;;;32.92;16.73;;;-3274.90;75.60;;;;;;5063460;28;20288;-64
2021/01/15 07:50:31;;;;;;;33.40;17.48;;;-3274.90;75.60;;;;;;5062445;28;20071;-64
2021/01/15 07:53:16;;;;;;;35.67;17.10;;;-3275.00;75.70;;;;;;5061177;28;20074;-64
2021/01/15 07:55:48;;;;;;;37.30;16.63;;;-3275.10;75.50;;;;;;5062011;28;20232;-64
2021/01/15 07:58:14;;;;;;;;;;;-3275.20;75.10;;;;;;5062720;28;20041;-63
2021/01/15 08:00:40;;;;;;;31.60;16.27;;;-3275.20;75.00;;;;;;5063622;28;19919;-65
2021/01/15 08:03:05;;;;;;;32.25;16.70;;;-3275.20;75.20;;;;;;5063541;28;20060;-64
2021/01/15 08:05:32;;;;;;;35.03;15.55;;;-3275.20;75.40;;;;;;5061379;28;20036;-64
2021/01/15 08:08:05;;;;;;;33.10;16.25;;;-3275.30;75.50;;;;;;5062277;28;20041;-65
2021/01/15 08:10:30;;;;;;;31.65;15.75;;;-3275.30;75.60;;;;;;5062015;28;20049;-65
2021/01/15 08:12:56;;;;;;;26.75;15.13;;;-3275.40;75.80;;;;;;5063600;28;20041;-68
2021/01/15 08:15:29;;;;;;;29.10;14.80;;;-3275.50;75.40;;;;;;5060183;28;20029;-66
2021/01/15 08:17:55;;;;;;;30.42;16.30;;;-3275.50;75.30;;;;;;5064008;28;20079;-65
2021/01/15 08:20:21;;;;;;;28.85;14.98;;;-3275.50;75.30;;;;;;5061831;28;20040;-65
2021/01/15 08:22:50;;;;;;;30.05;15.73;;;-3275.60;75.20;;;;;;5038913;28;20328;-64
2021/01/15 08:25:28;;;;;;;28.45;14.85;;;-3275.60;75.10;;;;;;5060385;28;20052;-67
2021/01/15 08:27:55;;;;;;;27.80;15.07;;;-3275.60;74.60;;;;;;5064134;28;20033;-63
2021/01/15 08:30:21;;;;;;;29.17;14.48;;;-3275.50;74.60;;;;;;5060989;28;20052;-65
2021/01/15 08:32:46;;;;;;;29.90;15.32;;;-3275.50;74.70;;;;;;5044048;28;20041;-66
2021/01/15 08:35:25;;;;;;;25.80;14.93;;;-3275.60;75.20;;;;;;5060250;28;20040;-64
2021/01/15 08:37:57;;;;;;;35.45;15.70;;;-3275.80;74.80;;;;;;5061928;28;20048;-65
2021/01/15 08:40:27;;;;;;;31.02;14.88;;;-3275.80;74.40;;;;;;5061479;28;20036;-64
2021/01/15 08:42:57;;;;;;;31.55;15.18;;;-3275.90;74.30;;;;;;5047113;28;20236;-67
2021/01/15 08:45:26;;;;;;;30.95;15.55;;;-3276.10;73.70;;;;;;5060510;28;20041;-69
2021/01/15 08:47:53;;;;;;;31.33;15.82;;;-3276.20;73.40;;;;;;5044562;28;20098;-65
2021/01/15 08:50:18;;;;;;;28.90;15.25;;;-3276.20;72.70;;;;;;5043635;28;20029;-62
2021/01/15 08:52:44;;;;;;;27.95;14.70;;;-3276.40;72.50;;;;;;5060709;28;20079;-66
2021/01/15 08:55:11;;;;;;;27.80;15.15;;;-3276.50;71.50;;;;;;5061321;28;20037;-64
2021/01/15 08:57:36;;;;;;;27.63;14.48;;;0.00;71.50;;;;;;5030519;28;20088;-65
2021/01/15 09:00:15;;;;;;;27.77;15.77;;;0.00;70.50;;;;;;5043771;28;20216;-66
2021/01/15 09:02:42;;;;;;;29.88;15.77;;;0.10;69.50;;;;;;5059557;28;20044;-67
2021/01/15 09:05:11;;;;;;;27.80;15.15;;;0.40;68.80;;;;;;5043341;28;20052;-64
2021/01/15 09:07:44;;;;;;;29.30;15.32;;;0.90;68.00;;;;;;5043907;28;20079;-66
2021/01/15 09:10:11;;;;;;;29.48;15.43;;;1.50;66.00;;;;;;5059828;28;20248;-65
2021/01/15 09:12:41;;;;;;;28.38;15.77;;;1.80;64.90;;;;;;5063124;28;20029;-64
2021/01/15 09:15:08;;;;;;;28.30;15.88;;;1.60;64.80;;;;;;5060981;28;20039;-64
2021/01/15 09:17:33;;;;;;;29.50;14.75;;;1.70;65.70;;;;;;5060958;28;20357;-64
2021/01/15 09:19:59;;;;;;;25.08;14.32;;;1.70;65.50;;;;;;5059574;28;20029;-65
2021/01/15 09:22:26;;;;;;;24.42;16.25;;;1.40;64.60;;;;;;5061207;28;20028;-63
2021/01/15 09:24:52;;;;;;;23.45;14.27;;;1.50;65.80;;;;;;5064381;28;20102;-65
2021/01/15 09:27:18;;;;;;;26.58;14.07;;;2.10;63.70;;;;;;5060048;28;20033;-64
2021/01/15 09:29:43;;;;;;;24.50;14.15;;;2.20;62.80;;;;;;5043187;28;20041;-67
2021/01/15 09:32:09;;;;;;;24.33;14.15;;;2.30;62.60;;;;;;5060716;28;20332;-64
2021/01/15 09:34:34;;;;;;;25.58;14.65;;;2.50;62.50;;;;;;5060915;28;20047;-65
2021/01/15 09:37:01;;;;;;;20.98;13.57;;;2.80;62.00;;;;;;5063062;28;20033;-65
2021/01/15 09:39:26;;;;;;;22.60;14.20;;;3.00;61.40;;;;;;5061537;28;20037;-64
2021/01/15 09:41:59;;;;;;;27.08;14.07;;;3.30;60.70;;;;;;5060987;28;20106;-66
2021/01/15 09:44:28;;;;;;;22.58;13.45;;;3.70;60.00;;;;;;5059408;28;20324;-70
2021/01/15 09:47:01;;;;;;;26.67;15.55;;;4.40;58.60;;;;;;5042545;28;20231;-65
2021/01/15 09:49:27;;;;;;;28.20;15.32;;;5.10;56.60;;;;;;5060384;28;20028;-63
2021/01/15 09:51:53;;;;;;;28.60;15.88;;;5.40;54.50;;;;;;5062793;28;20075;-65
2021/01/15 09:54:18;;;;;;;23.08;14.20;;;5.50;53.40;;;;;;5059813;28;20037;-66
2021/01/15 09:56:44;;;;;;;27.67;15.57;;;4.60;54.70;;;;;;5060560;28;20056;-64
2021/01/15 09:59:11;;;;;;;25.98;15.63;;;4.20;56.90;;;;;;5060660;28;20048;-68
2021/01/15 10:01:37;;;;;;;27.00;15.65;;;4.50;56.70;;;;;;5059124;28;20055;-66
2021/01/15 10:04:03;;;;;;;24.13;15.45;;;4.50;57.00;;;;;;5044383;28;20020;-65
2021/01/15 10:06:28;;;;;;;26.17;15.25;;;4.70;56.90;;;;;;5062070;28;20320;-65
2021/01/15 10:08:55;;;;;;;26.40;15.98;;;4.90;54.90;;;;;;5060697;28;20040;-66
2021/01/15 10:11:27;;;;;;;25.33;14.30;;;4.80;55.00;;;;;;5058824;28;20069;-65
2021/01/15 10:13:59;;;;;;;21.75;14.40;;;5.50;54.40;;;;;;5043504;28;20029;-65
2021/01/15 10:16:25;;;;;;;24.17;14.13;;;5.80;52.00;;;;;;5060517;28;20212;-64
2021/01/15 10:18:51;;;;;;;21.20;14.20;;;6.40;50.90;;;;;;5063507;28;20039;-66
2021/01/15 10:21:24;;;;;;;22.42;13.50;;;6.90;49.40;;;;;;5059712;28;20087;-67
2021/01/15 10:23:51;;;;;;;21.20;13.88;;;7.00;47.80;;;;;;5059316;28;20127;-68
2021/01/15 10:26:25;;;;;;;21.80;14.80;;;7.30;47.40;;;;;;5060888;28;20332;-68
2021/01/15 10:28:57;;;;;;;22.48;14.90;;;7.60;46.50;;;;;;5063884;28;20056;-66
2021/01/15 10:31:27;;;;;;;22.20;13.60;;;7.90;46.00;;;;;;5062722;28;20048;-65
2021/01/15 10:33:57;;;;;;;20.20;13.10;;;7.50;45.70;;;;;;5067151;28;20037;-65
2021/01/15 10:36:23;;;;;;;18.38;11.38;;;7.60;46.90;;;;;;5046183;28;20299;-66
2021/01/15 10:38:48;;;;;;;23.73;14.93;;;7.40;46.70;;;;;;5029778;28;20040;-65
2021/01/15 10:41:14;;;;;;;24.13;15.80;;;7.30;47.10;;;;;;5063852;28;20092;-66
2021/01/15 10:43:40;;;;;;;25.55;16.23;;;7.20;48.20;;;;;;5063529;28;20091;-66
2021/01/15 10:46:06;;;;;;;25.98;16.70;;;7.30;48.80;;;;;;5063704;28;20064;-68
2021/01/15 10:48:31;;;;;;;24.27;15.95;;;7.30;48.30;;;;;;5065762;28;20021;-66
2021/01/15 10:50:57;;;;;;;28.40;15.98;;;7.00;48.40;;;;;;5063623;28;20079;-65
2021/01/15 10:53:23;;;;;;;23.77;15.82;;;6.70;49.00;;;;;;5045909;28;20377;-67
2021/01/15 10:55:49;;;;;;;23.90;15.48;;;6.80;49.10;;;;;;5063452;28;20025;-66
2021/01/15 10:58:16;;;;;;;30.85;15.77;;;6.90;49.00;;;;;;5062065;28;20272;-66
2021/01/15 11:00:41;;;;;;;25.52;15.50;;;6.90;48.80;;;;;;5066837;28;20217;-66
2021/01/15 11:03:07;;;;;;;23.80;15.70;;;7.20;48.30;;;;;;5045861;28;20096;-64
2021/01/15 11:05:33;;;;;;;25.30;15.38;;;7.20;48.70;;;;;;5063574;28;20324;-66
2021/01/15 11:07:58;;;;;;;25.35;16.02;;;6.90;49.60;;;;;;5062328;28;20037;-64
2021/01/15 11:10:24;;;;;;;24.00;15.15;;;6.80;48.20;;;;;;5062902;28;20056;-66
2021/01/15 11:12:49;;;;;;;23.00;15.60;;;6.90;49.30;;;;;;5065154;28;20040;-64
2021/01/15 11:15:15;;;;;;;25.02;15.45;;;7.30;47.70;;;;;;5063666;28;20041;-66
2021/01/15 11:17:41;;;;;;;26.75;15.38;;;7.00;47.20;;;;;;5061778;28;20061;-69
2021/01/15 11:20:08;;;;;;;27.63;15.07;;;6.80;48.10;;;;;;5061916;28;20044;-71
2021/01/15 11:22:37;;;;;;;25.23;15.25;;;6.80;48.40;;;;;;5045054;28;20216;-67
2021/01/15 11:25:04;;;;;;;27.08;15.10;;;6.80;48.50;;;;;;5063474;28;20033;-69
2021/01/15 11:27:30;;;;;;;24.52;14.57;;;6.90;48.50;;;;;;5047118;28;20025;-69
2021/01/15 11:29:55;;;;;;;22.15;14.00;;;7.30;47.60;;;;;;5061357;28;20086;-68
2021/01/15 11:32:21;;;;;;;25.40;14.85;;;7.30;46.60;;;;;;5062477;28;20107;-67
2021/01/15 11:34:47;;;;;;;23.70;15.40;;;7.30;46.50;;;;;;5045530;28;20325;-69
2021/01/15 11:37:13;;;;;;;24.25;15.32;;;7.30;47.50;;;;;;5062061;28;20033;-67
2021/01/15 11:39:38;;;;;;;25.55;15.82;;;7.80;46.60;;;;;;5066046;28;20029;-65
2021/01/15 11:42:04;;;;;;;24.13;15.35;;;7.70;45.80;;;;;;5061726;28;20259;-67
2021/01/15 11:44:30;;;;;;;24.63;15.65;;;7.80;46.00;;;;;;5062797;28;20036;-65
2021/01/15 11:46:55;;;;;;;22.98;14.35;;;7.40;45.60;;;;;;5062475;28;20371;-68
2021/01/15 11:49:21;;;;;;;22.90;13.90;;;7.30;46.20;;;;;;5062773;28;20131;-69
2021/01/15 11:51:46;;;;;;;26.38;15.75;;;7.40;46.90;;;;;;5064744;28;20268;-67
2021/01/15 11:54:12;;;;;;;22.20;14.48;;;7.50;46.10;;;;;;5062480;28;20064;-67
2021/01/15 11:56:41;;;;;;;24.83;14.63;;;7.30;46.50;;;;;;5062824;28;20040;-66
2021/01/15 11:59:09;;;;;;;25.58;15.15;;;7.10;47.70;;;;;;5044946;28;20264;-66
2021/01/15 12:01:35;;;;;;;26.20;15.50;;;7.00;47.10;;;;;;5060977;28;20048;-66
2021/01/15 12:04:00;;;;;;;25.88;15.88;;;6.90;48.20;;;;;;5065820;28;20067;-67
2021/01/15 12:06:26;;;;;;;24.67;15.13;;;6.90;47.80;;;;;;5063045;28;20044;-66
2021/01/15 12:08:52;;;;;;;26.90;14.73;;;6.90;47.50;;;;;;5062604;28;20033;-67
2021/01/15 12:11:18;;;;;;;24.25;15.02;;;7.00;47.50;;;;;;5061800;28;20105;-66
2021/01/15 12:13:43;;;;;;;25.90;15.15;;;7.30;47.10;;;;;;5061586;28;20040;-65
2021/01/15 12:16:11;;;;;;;25.98;14.48;;;7.30;46.70;;;;;;5061954;28;20033;-66
2021/01/15 12:18:37;;;;;;;22.92;14.68;;;7.30;47.10;;;;;;5065389;28;20029;-65
2021/01/15 12:21:02;;;;;;;24.95;14.68;;;7.20;46.90;;;;;;5061088;28;20372;-65